sensor_id;sensor_type;location;lat;lon;timestamp;P1;durP1;ratioP1;P2;durP2;ratioP2
21315;SDS011;10817;55.820;13.030;2022-10-19T00:00:20;7.30;;;1.60;;
21315;SDS011;10817;55.820;13.030;2022-10-19T00:02:47;3.75;;;1.83;;
21315;SDS011;10817;55.820;13.030;2022-10-19T00:05:14;6.85;;;1.60;;
21315;SDS011;10817;55.820;13.030;2022-10-19T00:07:41;4.85;;;1.73;;
21315;SDS011;10817;55.820;13.030;2022-10-19T00:10:09;10.25;;;1.73;;
21315;SDS011;10817;55.820;13.030;2022-10-19T00:12:37;6.35;;;1.70;;
21315;SDS011;10817;55.820;13.030;2022-10-19T00:15:04;5.60;;;1.65;;
21315;SDS011;10817;55.820;13.030;2022-10-19T00:17:32;6.70;;;2.03;;
21315;SDS011;10817;55.820;13.030;2022-10-19T00:19:59;5.35;;;1.83;;
21315;SDS011;10817;55.820;13.030;2022-10-19T00:22:26;4.78;;;2.28;;
21315;SDS011;10817;55.820;13.030;2022-10-19T00:24:54;4.10;;;1.73;;
21315;SDS011;10817;55.820;13.030;2022-10-19T00:27:23;7.05;;;1.92;;
21315;SDS011;10817;55.820;13.030;2022-10-19T00:29:50;5.43;;;1.60;;
21315;SDS011;10817;55.820;13.030;2022-10-19T00:32:17;5.55;;;1.58;;
21315;SDS011;10817;55.820;13.030;2022-10-19T00:34:44;3.10;;;1.67;;
21315;SDS011;10817;55.820;13.030;2022-10-19T00:37:11;7.57;;;1.77;;
21315;SDS011;10817;55.820;13.030;2022-10-19T00:39:38;6.65;;;1.85;;
21315;SDS011;10817;55.820;13.030;2022-10-19T00:42:05;3.28;;;1.75;;
21315;SDS011;10817;55.820;13.030;2022-10-19T00:47:27;5.70;;;1.65;;
21315;SDS011;10817;55.820;13.030;2022-10-19T00:49:54;5.07;;;1.55;;
21315;SDS011;10817;55.820;13.030;2022-10-19T00:52:23;5.65;;;1.95;;
21315;SDS011;10817;55.820;13.030;2022-10-19T00:54:52;4.60;;;2.03;;
21315;SDS011;10817;55.820;13.030;2022-10-19T00:57:20;2.75;;;1.60;;
21315;SDS011;10817;55.820;13.030;2022-10-19T00:59:48;8.02;;;1.75;;
21315;SDS011;10817;55.820;13.030;2022-10-19T01:02:18;3.58;;;1.80;;
21315;SDS011;10817;55.820;13.030;2022-10-19T01:04:46;5.15;;;1.80;;
21315;SDS011;10817;55.820;13.030;2022-10-19T01:07:15;2.97;;;1.65;;
21315;SDS011;10817;55.820;13.030;2022-10-19T01:09:43;4.47;;;1.42;;
21315;SDS011;10817;55.820;13.030;2022-10-19T01:12:15;2.70;;;1.50;;
21315;SDS011;10817;55.820;13.030;2022-10-19T01:14:52;2.60;;;1.52;;
21315;SDS011;10817;55.820;13.030;2022-10-19T01:17:31;3.75;;;1.55;;
21315;SDS011;10817;55.820;13.030;2022-10-19T01:27:00;3.85;;;1.73;;
21315;SDS011;10817;55.820;13.030;2022-10-19T01:30:03;4.22;;;1.42;;
21315;SDS011;10817;55.820;13.030;2022-10-19T01:32:37;5.78;;;1.42;;
21315;SDS011;10817;55.820;13.030;2022-10-19T01:35:10;4.93;;;1.42;;
21315;SDS011;10817;55.820;13.030;2022-10-19T01:37:44;4.05;;;1.20;;
21315;SDS011;10817;55.820;13.030;2022-10-19T01:40:16;1.27;;;1.13;;
21315;SDS011;10817;55.820;13.030;2022-10-19T01:42:50;2.20;;;1.10;;
21315;SDS011;10817;55.820;13.030;2022-10-19T01:45:26;2.35;;;1.20;;
21315;SDS011;10817;55.820;13.030;2022-10-19T01:47:58;3.80;;;1.10;;
21315;SDS011;10817;55.820;13.030;2022-10-19T01:50:30;4.50;;;1.42;;
21315;SDS011;10817;55.820;13.030;2022-10-19T01:53:00;2.83;;;1.40;;
21315;SDS011;10817;55.820;13.030;2022-10-19T01:55:31;2.35;;;1.17;;
21315;SDS011;10817;55.820;13.030;2022-10-19T01:58:00;6.57;;;1.48;;
21315;SDS011;10817;55.820;13.030;2022-10-19T02:00:33;2.40;;;1.13;;
21315;SDS011;10817;55.820;13.030;2022-10-19T02:03:02;3.53;;;1.40;;
21315;SDS011;10817;55.820;13.030;2022-10-19T02:05:32;1.90;;;1.20;;
21315;SDS011;10817;55.820;13.030;2022-10-19T02:08:01;2.10;;;1.85;;
21315;SDS011;10817;55.820;13.030;2022-10-19T02:10:31;2.05;;;1.50;;
21315;SDS011;10817;55.820;13.030;2022-10-19T02:13:00;2.17;;;1.48;;
21315;SDS011;10817;55.820;13.030;2022-10-19T02:15:28;1.58;;;1.20;;
21315;SDS011;10817;55.820;13.030;2022-10-19T02:18:00;2.95;;;1.33;;
21315;SDS011;10817;55.820;13.030;2022-10-19T02:20:27;1.60;;;1.50;;
21315;SDS011;10817;55.820;13.030;2022-10-19T02:22:55;3.20;;;1.48;;
21315;SDS011;10817;55.820;13.030;2022-10-19T02:25:22;2.95;;;1.33;;
21315;SDS011;10817;55.820;13.030;2022-10-19T02:27:51;4.30;;;1.60;;
21315;SDS011;10817;55.820;13.030;2022-10-19T02:30:18;2.55;;;1.70;;
21315;SDS011;10817;55.820;13.030;2022-10-19T02:32:48;1.60;;;1.20;;
21315;SDS011;10817;55.820;13.030;2022-10-19T02:35:16;1.85;;;1.25;;
21315;SDS011;10817;55.820;13.030;2022-10-19T02:37:43;4.93;;;1.08;;
21315;SDS011;10817;55.820;13.030;2022-10-19T02:40:10;2.75;;;1.20;;
21315;SDS011;10817;55.820;13.030;2022-10-19T02:42:38;1.35;;;1.25;;
21315;SDS011;10817;55.820;13.030;2022-10-19T02:45:10;4.78;;;1.15;;
21315;SDS011;10817;55.820;13.030;2022-10-19T02:47:41;2.47;;;1.20;;
21315;SDS011;10817;55.820;13.030;2022-10-19T02:50:11;4.28;;;1.00;;
21315;SDS011;10817;55.820;13.030;2022-10-19T02:52:39;2.30;;;1.10;;
21315;SDS011;10817;55.820;13.030;2022-10-19T02:55:06;5.57;;;1.15;;
21315;SDS011;10817;55.820;13.030;2022-10-19T02:57:34;3.22;;;1.10;;
21315;SDS011;10817;55.820;13.030;2022-10-19T03:00:03;3.33;;;1.05;;
21315;SDS011;10817;55.820;13.030;2022-10-19T03:02:31;1.88;;;1.13;;
21315;SDS011;10817;55.820;13.030;2022-10-19T03:04:58;2.83;;;0.90;;
21315;SDS011;10817;55.820;13.030;2022-10-19T03:07:26;1.10;;;1.00;;
21315;SDS011;10817;55.820;13.030;2022-10-19T03:09:53;9.15;;;1.20;;
21315;SDS011;10817;55.820;13.030;2022-10-19T03:12:20;4.50;;;1.08;;
21315;SDS011;10817;55.820;13.030;2022-10-19T03:14:46;4.80;;;0.90;;
21315;SDS011;10817;55.820;13.030;2022-10-19T03:17:13;2.53;;;1.00;;
21315;SDS011;10817;55.820;13.030;2022-10-19T03:19:40;2.28;;;1.10;;
21315;SDS011;10817;55.820;13.030;2022-10-19T03:22:07;5.88;;;0.93;;
21315;SDS011;10817;55.820;13.030;2022-10-19T03:24:35;1.20;;;0.77;;
21315;SDS011;10817;55.820;13.030;2022-10-19T03:27:02;1.20;;;1.10;;
21315;SDS011;10817;55.820;13.030;2022-10-19T03:29:29;1.15;;;1.00;;
21315;SDS011;10817;55.820;13.030;2022-10-19T03:31:55;1.50;;;0.93;;
21315;SDS011;10817;55.820;13.030;2022-10-19T03:34:22;3.55;;;0.90;;
21315;SDS011;10817;55.820;13.030;2022-10-19T03:36:49;1.30;;;0.90;;
21315;SDS011;10817;55.820;13.030;2022-10-19T03:39:16;3.50;;;1.27;;
21315;SDS011;10817;55.820;13.030;2022-10-19T03:41:45;3.05;;;1.20;;
21315;SDS011;10817;55.820;13.030;2022-10-19T03:44:12;6.43;;;1.17;;
21315;SDS011;10817;55.820;13.030;2022-10-19T03:46:39;2.13;;;1.30;;
21315;SDS011;10817;55.820;13.030;2022-10-19T03:49:06;1.52;;;1.02;;
21315;SDS011;10817;55.820;13.030;2022-10-19T03:51:33;2.92;;;1.10;;
21315;SDS011;10817;55.820;13.030;2022-10-19T03:54:01;6.53;;;2.53;;
21315;SDS011;10817;55.820;13.030;2022-10-19T03:56:30;1.67;;;1.40;;
21315;SDS011;10817;55.820;13.030;2022-10-19T03:59:00;1.70;;;1.20;;
21315;SDS011;10817;55.820;13.030;2022-10-19T04:01:30;2.50;;;1.52;;
21315;SDS011;10817;55.820;13.030;2022-10-19T04:03:59;1.50;;;1.40;;
21315;SDS011;10817;55.820;13.030;2022-10-19T04:06:28;2.22;;;1.30;;
21315;SDS011;10817;55.820;13.030;2022-10-19T04:08:55;3.15;;;1.25;;
21315;SDS011;10817;55.820;13.030;2022-10-19T04:11:23;1.83;;;1.40;;
21315;SDS011;10817;55.820;13.030;2022-10-19T04:13:52;1.73;;;1.30;;
21315;SDS011;10817;55.820;13.030;2022-10-19T04:16:22;32.33;;;1.98;;
21315;SDS011;10817;55.820;13.030;2022-10-19T04:18:50;2.40;;;1.50;;
21315;SDS011;10817;55.820;13.030;2022-10-19T04:21:20;3.55;;;1.88;;
21315;SDS011;10817;55.820;13.030;2022-10-19T04:23:49;1.67;;;1.48;;
21315;SDS011;10817;55.820;13.030;2022-10-19T04:26:17;3.70;;;1.50;;
21315;SDS011;10817;55.820;13.030;2022-10-19T04:28:44;4.75;;;1.48;;
21315;SDS011;10817;55.820;13.030;2022-10-19T04:31:11;2.30;;;1.42;;
21315;SDS011;10817;55.820;13.030;2022-10-19T04:33:39;1.60;;;1.50;;
21315;SDS011;10817;55.820;13.030;2022-10-19T04:36:08;4.32;;;1.70;;
21315;SDS011;10817;55.820;13.030;2022-10-19T04:38:36;2.08;;;1.65;;
21315;SDS011;10817;55.820;13.030;2022-10-19T04:41:03;5.40;;;1.70;;
21315;SDS011;10817;55.820;13.030;2022-10-19T04:43:31;3.75;;;1.88;;
21315;SDS011;10817;55.820;13.030;2022-10-19T04:46:01;5.82;;;2.25;;
21315;SDS011;10817;55.820;13.030;2022-10-19T04:48:28;9.27;;;2.92;;
21315;SDS011;10817;55.820;13.030;2022-10-19T04:50:57;5.30;;;3.35;;
21315;SDS011;10817;55.820;13.030;2022-10-19T04:53:24;5.13;;;3.50;;
21315;SDS011;10817;55.820;13.030;2022-10-19T04:55:50;6.30;;;3.10;;
21315;SDS011;10817;55.820;13.030;2022-10-19T04:58:17;3.15;;;2.85;;
21315;SDS011;10817;55.820;13.030;2022-10-19T05:00:44;6.85;;;3.17;;
21315;SDS011;10817;55.820;13.030;2022-10-19T05:03:11;4.53;;;3.40;;
21315;SDS011;10817;55.820;13.030;2022-10-19T05:05:39;9.05;;;3.33;;
21315;SDS011;10817;55.820;13.030;2022-10-19T05:08:07;6.28;;;3.60;;
21315;SDS011;10817;55.820;13.030;2022-10-19T05:10:35;5.30;;;3.40;;
21315;SDS011;10817;55.820;13.030;2022-10-19T05:13:02;4.55;;;3.42;;
21315;SDS011;10817;55.820;13.030;2022-10-19T05:15:30;4.93;;;3.70;;
21315;SDS011;10817;55.820;13.030;2022-10-19T05:17:57;6.78;;;3.60;;
21315;SDS011;10817;55.820;13.030;2022-10-19T05:20:24;5.75;;;3.28;;
21315;SDS011;10817;55.820;13.030;2022-10-19T05:22:51;3.50;;;3.20;;
21315;SDS011;10817;55.820;13.030;2022-10-19T05:25:19;3.20;;;2.90;;
21315;SDS011;10817;55.820;13.030;2022-10-19T05:27:49;3.15;;;2.55;;
21315;SDS011;10817;55.820;13.030;2022-10-19T05:30:17;10.98;;;2.70;;
21315;SDS011;10817;55.820;13.030;2022-10-19T05:32:45;2.83;;;2.50;;
21315;SDS011;10817;55.820;13.030;2022-10-19T05:35:12;4.28;;;1.85;;
21315;SDS011;10817;55.820;13.030;2022-10-19T05:37:39;2.25;;;1.92;;
21315;SDS011;10817;55.820;13.030;2022-10-19T05:40:06;6.07;;;2.08;;
21315;SDS011;10817;55.820;13.030;2022-10-19T05:42:36;2.85;;;2.10;;
21315;SDS011;10817;55.820;13.030;2022-10-19T05:45:03;2.40;;;1.80;;
21315;SDS011;10817;55.820;13.030;2022-10-19T05:47:31;2.40;;;2.13;;
21315;SDS011;10817;55.820;13.030;2022-10-19T05:49:59;4.25;;;2.28;;
21315;SDS011;10817;55.820;13.030;2022-10-19T05:52:27;6.88;;;2.40;;
21315;SDS011;10817;55.820;13.030;2022-10-19T05:54:54;7.50;;;2.42;;
21315;SDS011;10817;55.820;13.030;2022-10-19T05:57:22;4.28;;;2.65;;
21315;SDS011;10817;55.820;13.030;2022-10-19T05:59:51;3.55;;;2.35;;
21315;SDS011;10817;55.820;13.030;2022-10-19T06:02:20;5.60;;;3.00;;
21315;SDS011;10817;55.820;13.030;2022-10-19T06:04:48;4.32;;;3.55;;
21315;SDS011;10817;55.820;13.030;2022-10-19T06:07:15;3.45;;;2.50;;
21315;SDS011;10817;55.820;13.030;2022-10-19T06:09:41;5.63;;;2.85;;
21315;SDS011;10817;55.820;13.030;2022-10-19T06:12:09;4.38;;;2.60;;
21315;SDS011;10817;55.820;13.030;2022-10-19T06:14:36;5.45;;;2.53;;
21315;SDS011;10817;55.820;13.030;2022-10-19T06:17:04;6.43;;;3.15;;
21315;SDS011;10817;55.820;13.030;2022-10-19T06:19:32;4.80;;;3.78;;
21315;SDS011;10817;55.820;13.030;2022-10-19T06:21:58;6.30;;;3.63;;
21315;SDS011;10817;55.820;13.030;2022-10-19T06:24:25;5.32;;;3.45;;
21315;SDS011;10817;55.820;13.030;2022-10-19T06:26:52;6.35;;;3.50;;
21315;SDS011;10817;55.820;13.030;2022-10-19T06:29:19;6.57;;;4.05;;
21315;SDS011;10817;55.820;13.030;2022-10-19T06:31:46;4.63;;;3.50;;
21315;SDS011;10817;55.820;13.030;2022-10-19T06:34:14;7.28;;;3.88;;
21315;SDS011;10817;55.820;13.030;2022-10-19T06:36:41;4.35;;;2.83;;
21315;SDS011;10817;55.820;13.030;2022-10-19T06:39:08;3.08;;;2.78;;
21315;SDS011;10817;55.820;13.030;2022-10-19T06:41:35;2.70;;;2.10;;
21315;SDS011;10817;55.820;13.030;2022-10-19T06:44:17;2.70;;;2.20;;
21315;SDS011;10817;55.820;13.030;2022-10-19T06:46:44;3.63;;;2.60;;
21315;SDS011;10817;55.820;13.030;2022-10-19T06:49:11;4.63;;;2.35;;
21315;SDS011;10817;55.820;13.030;2022-10-19T06:51:40;5.97;;;2.25;;
21315;SDS011;10817;55.820;13.030;2022-10-19T06:54:07;4.40;;;1.85;;
21315;SDS011;10817;55.820;13.030;2022-10-19T06:56:34;3.60;;;1.80;;
21315;SDS011;10817;55.820;13.030;2022-10-19T06:59:01;3.17;;;2.38;;
21315;SDS011;10817;55.820;13.030;2022-10-19T07:01:28;8.15;;;2.20;;
21315;SDS011;10817;55.820;13.030;2022-10-19T07:03:55;5.63;;;2.10;;
21315;SDS011;10817;55.820;13.030;2022-10-19T07:06:25;6.93;;;2.17;;
21315;SDS011;10817;55.820;13.030;2022-10-19T07:08:54;2.22;;;1.80;;
21315;SDS011;10817;55.820;13.030;2022-10-19T07:11:21;4.50;;;2.10;;
21315;SDS011;10817;55.820;13.030;2022-10-19T07:13:48;5.13;;;2.05;;
21315;SDS011;10817;55.820;13.030;2022-10-19T07:16:16;4.10;;;2.10;;
21315;SDS011;10817;55.820;13.030;2022-10-19T07:18:43;3.95;;;2.42;;
21315;SDS011;10817;55.820;13.030;2022-10-19T07:21:11;3.35;;;1.85;;
21315;SDS011;10817;55.820;13.030;2022-10-19T07:23:40;5.95;;;1.88;;
21315;SDS011;10817;55.820;13.030;2022-10-19T07:26:10;4.10;;;2.28;;
21315;SDS011;10817;55.820;13.030;2022-10-19T07:28:38;2.35;;;1.80;;
21315;SDS011;10817;55.820;13.030;2022-10-19T07:31:06;1.83;;;1.60;;
21315;SDS011;10817;55.820;13.030;2022-10-19T07:33:50;1.67;;;1.50;;
21315;SDS011;10817;55.820;13.030;2022-10-19T07:36:20;2.13;;;1.73;;
21315;SDS011;10817;55.820;13.030;2022-10-19T07:38:48;5.13;;;1.63;;
21315;SDS011;10817;55.820;13.030;2022-10-19T07:41:17;2.10;;;1.70;;
21315;SDS011;10817;55.820;13.030;2022-10-19T07:43:46;5.30;;;1.67;;
21315;SDS011;10817;55.820;13.030;2022-10-19T07:46:14;3.35;;;1.75;;
21315;SDS011;10817;55.820;13.030;2022-10-19T07:48:43;2.67;;;1.60;;
21315;SDS011;10817;55.820;13.030;2022-10-19T07:51:11;2.55;;;1.60;;
21315;SDS011;10817;55.820;13.030;2022-10-19T07:53:39;1.63;;;1.35;;
21315;SDS011;10817;55.820;13.030;2022-10-19T07:56:07;1.50;;;1.40;;
21315;SDS011;10817;55.820;13.030;2022-10-19T07:58:37;1.45;;;1.35;;
21315;SDS011;10817;55.820;13.030;2022-10-19T08:01:04;1.30;;;1.20;;
21315;SDS011;10817;55.820;13.030;2022-10-19T08:03:35;2.03;;;1.20;;
21315;SDS011;10817;55.820;13.030;2022-10-19T08:06:03;1.45;;;1.35;;
21315;SDS011;10817;55.820;13.030;2022-10-19T08:08:32;1.67;;;1.30;;
21315;SDS011;10817;55.820;13.030;2022-10-19T08:11:04;9.18;;;1.30;;
21315;SDS011;10817;55.820;13.030;2022-10-19T08:13:32;1.75;;;1.20;;
21315;SDS011;10817;55.820;13.030;2022-10-19T08:16:00;2.05;;;1.10;;
21315;SDS011;10817;55.820;13.030;2022-10-19T08:18:28;0.85;;;0.85;;
21315;SDS011;10817;55.820;13.030;2022-10-19T08:20:55;0.98;;;0.90;;
21315;SDS011;10817;55.820;13.030;2022-10-19T08:23:22;1.70;;;1.00;;
21315;SDS011;10817;55.820;13.030;2022-10-19T08:25:51;2.30;;;1.10;;
21315;SDS011;10817;55.820;13.030;2022-10-19T08:28:23;1.98;;;1.00;;
21315;SDS011;10817;55.820;13.030;2022-10-19T08:30:49;2.28;;;1.20;;
21315;SDS011;10817;55.820;13.030;2022-10-19T08:33:23;2.53;;;1.45;;
21315;SDS011;10817;55.820;13.030;2022-10-19T08:35:51;1.75;;;0.80;;
21315;SDS011;10817;55.820;13.030;2022-10-19T08:38:18;0.95;;;0.95;;
21315;SDS011;10817;55.820;13.030;2022-10-19T08:40:45;3.33;;;1.05;;
21315;SDS011;10817;55.820;13.030;2022-10-19T08:43:14;1.13;;;1.02;;
21315;SDS011;10817;55.820;13.030;2022-10-19T08:45:49;1.35;;;0.90;;
21315;SDS011;10817;55.820;13.030;2022-10-19T08:48:26;0.95;;;0.90;;
21315;SDS011;10817;55.820;13.030;2022-10-19T08:50:54;1.00;;;0.90;;
21315;SDS011;10817;55.820;13.030;2022-10-19T08:53:23;4.63;;;0.90;;
21315;SDS011;10817;55.820;13.030;2022-10-19T08:56:00;2.10;;;0.80;;
21315;SDS011;10817;55.820;13.030;2022-10-19T08:58:39;1.13;;;0.85;;
21315;SDS011;10817;55.820;13.030;2022-10-19T09:01:33;1.77;;;0.60;;
21315;SDS011;10817;55.820;13.030;2022-10-19T09:04:06;1.17;;;0.60;;
21315;SDS011;10817;55.820;13.030;2022-10-19T09:06:42;1.40;;;0.70;;
21315;SDS011;10817;55.820;13.030;2022-10-19T09:09:17;0.77;;;0.40;;
21315;SDS011;10817;55.820;13.030;2022-10-19T09:11:46;0.95;;;0.50;;
21315;SDS011;10817;55.820;13.030;2022-10-19T09:14:17;1.00;;;0.50;;
21315;SDS011;10817;55.820;13.030;2022-10-19T09:16:48;2.75;;;0.50;;
21315;SDS011;10817;55.820;13.030;2022-10-19T09:19:19;0.73;;;0.43;;
21315;SDS011;10817;55.820;13.030;2022-10-19T09:21:50;0.43;;;0.40;;
21315;SDS011;10817;55.820;13.030;2022-10-19T09:24:28;0.73;;;0.40;;
21315;SDS011;10817;55.820;13.030;2022-10-19T09:27:00;2.58;;;0.60;;
21315;SDS011;10817;55.820;13.030;2022-10-19T09:29:29;0.40;;;0.40;;
21315;SDS011;10817;55.820;13.030;2022-10-19T09:32:03;0.50;;;0.50;;
21315;SDS011;10817;55.820;13.030;2022-10-19T09:34:33;1.10;;;0.47;;
21315;SDS011;10817;55.820;13.030;2022-10-19T09:37:03;2.90;;;0.63;;
21315;SDS011;10817;55.820;13.030;2022-10-19T09:39:30;1.40;;;0.40;;
21315;SDS011;10817;55.820;13.030;2022-10-19T09:41:58;1.50;;;0.47;;
21315;SDS011;10817;55.820;13.030;2022-10-19T09:44:30;1.83;;;0.82;;
21315;SDS011;10817;55.820;13.030;2022-10-19T09:47:01;2.88;;;0.57;;
21315;SDS011;10817;55.820;13.030;2022-10-19T09:49:44;4.32;;;0.60;;
21315;SDS011;10817;55.820;13.030;2022-10-19T09:52:22;0.63;;;0.40;;
21315;SDS011;10817;55.820;13.030;2022-10-19T09:54:58;2.85;;;0.50;;
21315;SDS011;10817;55.820;13.030;2022-10-19T09:57:27;0.40;;;0.40;;
21315;SDS011;10817;55.820;13.030;2022-10-19T09:59:54;2.95;;;0.50;;
21315;SDS011;10817;55.820;13.030;2022-10-19T10:02:27;2.03;;;0.43;;
21315;SDS011;10817;55.820;13.030;2022-10-19T10:05:02;5.15;;;0.40;;
21315;SDS011;10817;55.820;13.030;2022-10-19T10:07:32;0.30;;;0.30;;
21315;SDS011;10817;55.820;13.030;2022-10-19T10:10:02;3.03;;;0.60;;
21315;SDS011;10817;55.820;13.030;2022-10-19T10:12:35;1.20;;;0.45;;
21315;SDS011;10817;55.820;13.030;2022-10-19T10:15:05;2.13;;;0.55;;
21315;SDS011;10817;55.820;13.030;2022-10-19T10:17:32;1.92;;;0.50;;
21315;SDS011;10817;55.820;13.030;2022-10-19T10:20:15;1.20;;;0.40;;
21315;SDS011;10817;55.820;13.030;2022-10-19T10:22:51;0.80;;;0.60;;
21315;SDS011;10817;55.820;13.030;2022-10-19T10:25:22;3.25;;;0.50;;
21315;SDS011;10817;55.820;13.030;2022-10-19T10:27:59;2.47;;;0.50;;
21315;SDS011;10817;55.820;13.030;2022-10-19T10:30:28;0.40;;;0.40;;
21315;SDS011;10817;55.820;13.030;2022-10-19T10:32:58;0.60;;;0.35;;
21315;SDS011;10817;55.820;13.030;2022-10-19T10:35:28;0.60;;;0.40;;
21315;SDS011;10817;55.820;13.030;2022-10-19T10:40:48;2.45;;;0.50;;
21315;SDS011;10817;55.820;13.030;2022-10-19T10:43:17;1.45;;;0.40;;
21315;SDS011;10817;55.820;13.030;2022-10-19T10:45:47;0.45;;;0.40;;
21315;SDS011;10817;55.820;13.030;2022-10-19T10:48:20;0.60;;;0.30;;
21315;SDS011;10817;55.820;13.030;2022-10-19T10:50:54;6.18;;;0.43;;
21315;SDS011;10817;55.820;13.030;2022-10-19T10:53:33;0.47;;;0.38;;
21315;SDS011;10817;55.820;13.030;2022-10-19T10:56:01;1.55;;;0.50;;
21315;SDS011;10817;55.820;13.030;2022-10-19T10:58:33;0.77;;;0.40;;
21315;SDS011;10817;55.820;13.030;2022-10-19T11:01:10;0.50;;;0.40;;
21315;SDS011;10817;55.820;13.030;2022-10-19T11:03:45;0.43;;;0.30;;
21315;SDS011;10817;55.820;13.030;2022-10-19T11:06:17;2.03;;;0.40;;
21315;SDS011;10817;55.820;13.030;2022-10-19T11:08:47;0.30;;;0.30;;
21315;SDS011;10817;55.820;13.030;2022-10-19T11:11:21;2.20;;;0.45;;
21315;SDS011;10817;55.820;13.030;2022-10-19T11:13:55;1.52;;;0.40;;
21315;SDS011;10817;55.820;13.030;2022-10-19T11:16:26;2.60;;;0.47;;
21315;SDS011;10817;55.820;13.030;2022-10-19T11:18:59;0.77;;;0.38;;
21315;SDS011;10817;55.820;13.030;2022-10-19T11:21:37;0.60;;;0.40;;
21315;SDS011;10817;55.820;13.030;2022-10-19T11:24:10;1.25;;;0.40;;
21315;SDS011;10817;55.820;13.030;2022-10-19T11:26:56;0.30;;;0.30;;
21315;SDS011;10817;55.820;13.030;2022-10-19T11:29:34;0.82;;;0.40;;
21315;SDS011;10817;55.820;13.030;2022-10-19T11:32:15;3.30;;;0.40;;
21315;SDS011;10817;55.820;13.030;2022-10-19T11:34:52;1.02;;;0.40;;
21315;SDS011;10817;55.820;13.030;2022-10-19T11:37:31;1.10;;;0.30;;
21315;SDS011;10817;55.820;13.030;2022-10-19T11:40:07;0.75;;;0.45;;
21315;SDS011;10817;55.820;13.030;2022-10-19T11:42:46;0.60;;;0.32;;
21315;SDS011;10817;55.820;13.030;2022-10-19T11:45:27;1.75;;;0.50;;
21315;SDS011;10817;55.820;13.030;2022-10-19T11:48:16;0.63;;;0.30;;
21315;SDS011;10817;55.820;13.030;2022-10-19T11:51:04;1.95;;;0.40;;
21315;SDS011;10817;55.820;13.030;2022-10-19T11:53:39;0.43;;;0.30;;
21315;SDS011;10817;55.820;13.030;2022-10-19T11:56:15;0.85;;;0.30;;
21315;SDS011;10817;55.820;13.030;2022-10-19T11:58:52;0.75;;;0.40;;
21315;SDS011;10817;55.820;13.030;2022-10-19T12:01:31;0.35;;;0.30;;
21315;SDS011;10817;55.820;13.030;2022-10-19T12:04:22;0.77;;;0.30;;
21315;SDS011;10817;55.820;13.030;2022-10-19T12:07:05;0.40;;;0.30;;
21315;SDS011;10817;55.820;13.030;2022-10-19T12:09:45;0.30;;;0.30;;
21315;SDS011;10817;55.820;13.030;2022-10-19T12:12:22;2.13;;;0.40;;
21315;SDS011;10817;55.820;13.030;2022-10-19T12:14:56;0.38;;;0.30;;
21315;SDS011;10817;55.820;13.030;2022-10-19T12:17:31;0.75;;;0.30;;
21315;SDS011;10817;55.820;13.030;2022-10-19T12:20:02;0.90;;;0.35;;
21315;SDS011;10817;55.820;13.030;2022-10-19T12:22:33;0.40;;;0.30;;
21315;SDS011;10817;55.820;13.030;2022-10-19T12:25:04;0.95;;;0.40;;
21315;SDS011;10817;55.820;13.030;2022-10-19T12:27:32;3.28;;;0.40;;
21315;SDS011;10817;55.820;13.030;2022-10-19T12:30:02;1.88;;;0.55;;
21315;SDS011;10817;55.820;13.030;2022-10-19T12:32:32;1.00;;;0.30;;
21315;SDS011;10817;55.820;13.030;2022-10-19T12:35:11;0.50;;;0.30;;
21315;SDS011;10817;55.820;13.030;2022-10-19T12:37:50;0.40;;;0.30;;
21315;SDS011;10817;55.820;13.030;2022-10-19T12:40:24;3.03;;;0.30;;
21315;SDS011;10817;55.820;13.030;2022-10-19T12:42:58;0.30;;;0.30;;
21315;SDS011;10817;55.820;13.030;2022-10-19T12:45:29;0.43;;;0.30;;
21315;SDS011;10817;55.820;13.030;2022-10-19T12:48:15;0.30;;;0.30;;
21315;SDS011;10817;55.820;13.030;2022-10-19T12:53:42;0.93;;;0.45;;
21315;SDS011;10817;55.820;13.030;2022-10-19T12:56:29;0.95;;;0.40;;
21315;SDS011;10817;55.820;13.030;2022-10-19T12:58:56;1.15;;;0.50;;
21315;SDS011;10817;55.820;13.030;2022-10-19T13:01:26;2.28;;;0.32;;
21315;SDS011;10817;55.820;13.030;2022-10-19T13:04:08;0.20;;;0.20;;
21315;SDS011;10817;55.820;13.030;2022-10-19T13:06:37;1.38;;;0.40;;
21315;SDS011;10817;55.820;13.030;2022-10-19T13:09:08;0.70;;;0.30;;
21315;SDS011;10817;55.820;13.030;2022-10-19T13:14:54;2.67;;;0.40;;
21315;SDS011;10817;55.820;13.030;2022-10-19T13:17:38;1.27;;;0.40;;
21315;SDS011;10817;55.820;13.030;2022-10-19T13:29:22;1.45;;;0.45;;
21315;SDS011;10817;55.820;13.030;2022-10-19T13:31:51;1.05;;;0.40;;
21315;SDS011;10817;55.820;13.030;2022-10-19T13:34:18;4.18;;;0.85;;
21315;SDS011;10817;55.820;13.030;2022-10-19T13:36:57;2.78;;;0.50;;
21315;SDS011;10817;55.820;13.030;2022-10-19T13:39:26;0.40;;;0.40;;
21315;SDS011;10817;55.820;13.030;2022-10-19T13:41:54;1.50;;;0.40;;
21315;SDS011;10817;55.820;13.030;2022-10-19T13:44:31;1.95;;;0.50;;
21315;SDS011;10817;55.820;13.030;2022-10-19T13:47:19;0.40;;;0.30;;
21315;SDS011;10817;55.820;13.030;2022-10-19T13:49:58;2.38;;;0.40;;
21315;SDS011;10817;55.820;13.030;2022-10-19T13:55:57;1.75;;;0.50;;
21315;SDS011;10817;55.820;13.030;2022-10-19T13:58:42;0.60;;;0.47;;
21315;SDS011;10817;55.820;13.030;2022-10-19T14:01:30;1.95;;;0.40;;
21315;SDS011;10817;55.820;13.030;2022-10-19T14:04:18;1.52;;;0.45;;
21315;SDS011;10817;55.820;13.030;2022-10-19T14:06:52;0.45;;;0.40;;
21315;SDS011;10817;55.820;13.030;2022-10-19T14:09:27;1.38;;;0.40;;
21315;SDS011;10817;55.820;13.030;2022-10-19T14:12:20;2.15;;;0.50;;
21315;SDS011;10817;55.820;13.030;2022-10-19T14:14:49;6.93;;;0.82;;
21315;SDS011;10817;55.820;13.030;2022-10-19T14:17:18;0.95;;;0.50;;
21315;SDS011;10817;55.820;13.030;2022-10-19T14:19:50;2.33;;;0.60;;
21315;SDS011;10817;55.820;13.030;2022-10-19T14:22:20;2.60;;;0.75;;
21315;SDS011;10817;55.820;13.030;2022-10-19T14:24:51;1.65;;;0.65;;
21315;SDS011;10817;55.820;13.030;2022-10-19T14:27:25;3.10;;;0.70;;
21315;SDS011;10817;55.820;13.030;2022-10-19T14:29:52;1.58;;;0.40;;
21315;SDS011;10817;55.820;13.030;2022-10-19T14:32:21;1.08;;;0.50;;
21315;SDS011;10817;55.820;13.030;2022-10-19T14:34:51;2.08;;;0.60;;
21315;SDS011;10817;55.820;13.030;2022-10-19T14:37:20;4.95;;;0.40;;
21315;SDS011;10817;55.820;13.030;2022-10-19T14:39:56;0.60;;;0.40;;
21315;SDS011;10817;55.820;13.030;2022-10-19T14:42:33;1.80;;;0.47;;
21315;SDS011;10817;55.820;13.030;2022-10-19T14:45:10;1.55;;;0.40;;
21315;SDS011;10817;55.820;13.030;2022-10-19T14:47:59;2.50;;;0.40;;
21315;SDS011;10817;55.820;13.030;2022-10-19T14:50:33;1.27;;;0.50;;
21315;SDS011;10817;55.820;13.030;2022-10-19T14:53:12;1.05;;;0.30;;
21315;SDS011;10817;55.820;13.030;2022-10-19T14:55:59;0.93;;;0.40;;
21315;SDS011;10817;55.820;13.030;2022-10-19T14:58:29;1.05;;;0.43;;
21315;SDS011;10817;55.820;13.030;2022-10-19T15:01:02;2.58;;;0.50;;
21315;SDS011;10817;55.820;13.030;2022-10-19T15:03:29;2.05;;;0.50;;
21315;SDS011;10817;55.820;13.030;2022-10-19T15:05:59;1.05;;;0.52;;
21315;SDS011;10817;55.820;13.030;2022-10-19T15:08:30;1.92;;;0.47;;
21315;SDS011;10817;55.820;13.030;2022-10-19T15:11:01;3.60;;;0.50;;
21315;SDS011;10817;55.820;13.030;2022-10-19T15:13:30;1.33;;;0.40;;
21315;SDS011;10817;55.820;13.030;2022-10-19T15:15:59;2.92;;;0.50;;
21315;SDS011;10817;55.820;13.030;2022-10-19T15:18:32;1.55;;;0.50;;
21315;SDS011;10817;55.820;13.030;2022-10-19T15:21:09;1.05;;;0.50;;
21315;SDS011;10817;55.820;13.030;2022-10-19T15:23:38;1.85;;;0.50;;
21315;SDS011;10817;55.820;13.030;2022-10-19T15:26:12;2.67;;;0.50;;